KBXA/BXA METAR and TAF weather

Enter ICAO airport designator
Station Type Date Time Source
KBXA METAR 2019/08/22 02:35 UTC NOAA

KBXA 220235Z AUTO 00000KT 3/4SM OVC002 25/23 A3003 RMK AO2 T02500232


Station Type Date Time Source
KBXA Decoded METAR 2019/08/22 02:35 UTC NOAA

Station name not available
Aug 21, 2019 - 10:35 PM EDT / 2019.08.22 0235 UTC
Wind: Calm:0
Visibility: 3/4 mile(s):0
Sky conditions: overcast
Temperature: 77.0 F (25.0 C)
Dew Point: 73.8 F (23.2 C)
Relative Humidity: 89%
Pressure (altimeter): 30.03 in. Hg (1016 hPa)
ob: KBXA 220235Z AUTO 00000KT 3/4SM OVC002 25/23 A3003 RMK AO2 T02500232
cycle: 2

Station Type Date Time Source
KBXA TAF UTC NOAA

Error!

Example: see airport list